Time;durP1;ratioP1;P1;durP2;ratioP2;P2;SDS_P1;SDS_P2;PMS_P1;PMS_P2;Temp;Humidity;BMP_temperature;BMP_pressure;BME280_temperature;BME280_humidity;BME280_pressure;Samples;Min_cycle;Max_cycle;Signal;HPM_P1;HPM_P2
2022/05/05 00:05:10;;;;;;;;;;;;;;;7.51;100.00;101969.94;2612285;39;20286;-49
2022/05/05 00:07:38;;;;;;;;;;;;;;;7.56;100.00;101966.97;2616873;36;19991;-49
2022/05/05 00:14:23;;;;;;;;;;;;;;;7.55;100.00;101970.59;2611344;36;20041;-50
2022/05/05 00:20:32;;;;;;;;;;;;;;;7.34;100.00;101972.72;2612118;36;19974;-57
2022/05/05 00:23:00;;;;;;;;;;;;;;;7.30;100.00;101977.41;2611656;36;20113;-49
2022/05/05 00:25:28;;;;;;;;;;;;;;;7.26;100.00;101975.84;2611181;36;20034;-51
2022/05/05 00:27:58;;;;;;;;;;;;;;;7.14;100.00;101982.75;2608471;36;20054;-51
2022/05/05 00:30:26;;;;;;;;;;;;;;;7.12;100.00;101978.44;2609289;36;20381;-51
2022/05/05 00:32:54;;;;;;;;;;;;;;;7.17;100.00;101971.88;2607325;36;20157;-47
2022/05/05 00:35:22;;;;;;;;;;;;;;;7.16;100.00;101971.94;2607237;36;20065;-49
2022/05/05 00:37:52;;;;;;;;;;;;;;;7.12;100.00;101979.28;2607839;31;20037;-53
2022/05/05 00:40:20;;;;;;;;;;;;;;;7.20;100.00;101978.88;2607746;36;20062;-53
2022/05/05 00:42:48;;;;;;;;;;;;;;;7.19;100.00;101971.78;2607135;36;20057;-48
2022/05/05 00:45:18;;;;;;;;;;;;;;;7.12;100.00;101978.44;2606881;36;19970;-57
2022/05/05 00:47:46;;;;;;;;;;;;;;;7.07;100.00;101981.38;2607491;36;19977;-48
2022/05/05 00:50:14;;;;;;;;;;;;;;;7.23;100.00;101989.41;2607783;36;20077;-52
2022/05/05 00:52:42;;;;;;;;;;;;;;;7.15;100.00;101987.13;2608235;31;20448;-49
2022/05/05 01:12:54;;;;;;;;;;;;;;;6.94;100.00;101980.31;2608529;36;20021;-54
2022/05/05 01:20:30;;;;;;;;;;;;;;;6.66;100.00;101988.03;2612342;54;19950;-53
2022/05/05 01:23:00;;;;;;;;;;;;;;;6.68;100.00;101984.41;2614011;31;20005;-51
2022/05/05 01:33:11;;;;;;;;;;;;;;;6.58;100.00;101984.03;2613516;39;20379;-50
2022/05/05 01:50:48;;;;;;;;;;;;;;;6.41;100.00;101987.63;2614112;36;20053;-50
2022/05/05 02:00:39;;;;;;;;;;;;;;;6.18;100.00;101983.47;2611400;54;20062;-50
2022/05/05 02:15:49;;;;;;;;;;;;;;;5.97;100.00;101984.50;2611606;54;19942;-53
2022/05/05 02:18:18;;;;;;;;;;;;;;;5.96;100.00;101987.22;2611353;31;19978;-51
2022/05/05 02:20:46;;;;;;;;;;;;;;;5.93;100.00;101995.41;2612363;36;20434;-52
2022/05/05 02:23:15;;;;;;;;;;;;;;;5.95;100.00;101986.38;2612445;36;20551;-51
2022/05/05 02:30:44;;;;;;;;;;;;;;;5.97;100.00;101995.19;2612785;54;20432;-51
2022/05/05 02:33:12;;;;;;;;;;;;;;;5.90;100.00;102004.47;2612114;36;19977;-50
2022/05/05 02:35:40;;;;;;;;;;;;;;;5.87;100.00;101999.25;2612373;36;19954;-54
2022/05/05 02:45:32;;;;;;;;;;;;;;;5.71;100.00;102000.97;2610677;36;19985;-49
2022/05/05 02:48:04;;;;;;;;;;;;;;;5.72;100.00;102008.03;2612627;36;20112;-48
2022/05/05 02:50:32;;;;;;;;;;;;;;;5.61;100.00;101997.91;2611963;36;19973;-49
2022/05/05 02:53:00;;;;;;;;;;;;;;;5.66;100.00;102000.34;2612331;36;19947;-52
2022/05/05 02:55:26;;;;;;;;;;;;;;;5.78;100.00;102002.38;2613260;36;20050;-49
2022/05/05 02:57:54;;;;;;;;;;;;;;;5.71;100.00;102000.97;2613088;36;19961;-49
2022/05/05 03:00:23;;;;;;;;;;;;;;;5.67;100.00;102004.72;2612576;36;20101;-54
2022/05/05 03:02:51;;;;;;;;;;;;;;;5.64;100.00;102003.09;2613484;36;19961;-52
2022/05/05 03:05:22;;;;;;;;;;;;;;;5.65;100.00;102001.28;2613505;36;20364;-47
2022/05/05 03:07:50;;;;;;;;;;;;;;;5.65;100.00;102003.94;2613032;36;20045;-52
2022/05/05 03:17:39;;;;;;;;;;;;;;;5.47;100.00;102011.91;2612509;36;19946;-51
2022/05/05 03:20:08;;;;;;;;;;;;;;;5.49;100.00;102010.06;2612033;36;19981;-50
2022/05/05 03:22:39;;;;;;;;;;;;;;;5.57;100.00;102007.00;2612136;36;20034;-48
2022/05/05 03:25:07;;;;;;;;;;;;;;;5.50;100.00;102000.22;2612160;36;20283;-50
2022/05/05 03:27:39;;;;;;;;;;;;;;;5.44;100.00;102006.72;2612374;54;20499;-52
2022/05/05 03:30:08;;;;;;;;;;;;;;;5.46;100.00;102007.50;2611934;36;19953;-54
2022/05/05 03:47:26;;;;;;;;;;;;;;;5.30;100.00;102019.88;2612052;54;19950;-53
2022/05/05 03:49:55;;;;;;;;;;;;;;;5.30;100.00;102019.88;2616833;31;20041;-54
2022/05/05 03:59:45;;;;;;;;;;;;;;;5.24;100.00;102029.91;2611486;36;19954;-53
2022/05/05 04:17:56;;;;;;;;;;;;;;;5.22;100.00;102050.44;2612523;54;19984;-51
2022/05/05 04:20:24;;;;;;;;;;;;;;;5.23;100.00;102054.88;2619080;36;20087;-49
2022/05/05 04:22:52;;;;;;;;;;;;;;;5.25;100.00;102054.78;2612452;36;19950;-56
2022/05/05 04:25:21;;;;;;;;;;;;;;;5.41;100.00;102045.09;2612365;36;20037;-54
2022/05/05 04:27:49;;;;;;;;;;;;;;;5.62;100.00;102053.03;2613182;36;20061;-52
2022/05/05 04:35:23;;;;;;;;;;;;;;;5.90;100.00;102057.91;2612740;54;19951;31
2022/05/05 04:45:29;;;;;;;;;;;;;;;6.47;100.00;102062.19;2616174;36;19950;-49
2022/05/05 04:47:58;;;;;;;;;;;;;;;6.55;100.00;102060.00;2612902;36;19985;-50
2022/05/05 04:58:27;;;;;;;;;;;;;;;6.94;100.00;102060.63;2611409;36;19957;-51
2022/05/05 05:00:57;;;;;;;;;;;;;;;7.06;100.00;102059.09;2615451;36;20352;-53
2022/05/05 05:03:39;;;;;;;;;;;;;;;7.04;100.00;102055.59;2612888;36;20072;-51
2022/05/05 05:06:08;;;;;;;;;;;;;;;7.17;100.00;102064.72;2612371;36;19957;-52
2022/05/05 05:16:05;;;;;;;;;;;;;;;7.30;100.00;102076.50;2611679;54;19953;-51
2022/05/05 05:18:34;;;;;;;;;;;;;;;7.34;100.00;102074.50;2612097;36;20070;-51
2022/05/05 05:21:02;;;;;;;;;;;;;;;7.35;100.00;102070.88;2612816;31;19946;-50
2022/05/05 05:23:30;;;;;;;;;;;;;;;7.43;100.00;102073.97;2612545;36;20553;-56
2022/05/05 05:25:58;;;;;;;;;;;;;;;7.54;100.00;102081.44;2611798;36;19953;-55
2022/05/05 05:28:26;;;;;;;;;;;;;;;7.77;100.00;102082.78;2612152;36;19946;-51
2022/05/05 05:30:54;;;;;;;;;;;;;;;7.88;100.00;102076.81;2612157;36;20485;-53
2022/05/05 05:33:25;;;;;;;;;;;;;;;7.93;100.00;102076.53;2605683;36;20065;-56
2022/05/05 05:35:53;;;;;;;;;;;;;;;8.00;100.00;102078.78;2612872;36;19946;-57
2022/05/05 05:53:18;;;;;;;;;;;;;;;10.19;100.00;102088.44;2611670;36;20474;-51
2022/05/05 06:00:45;;;;;;;;;;;;;;;10.87;100.00;102073.91;2612786;54;19942;-52
2022/05/05 06:05:54;;;;;;;;;;;;;;;11.16;100.00;102076.38;2613767;36;20432;-50
2022/05/05 06:08:25;;;;;;;;;;;;;;;11.34;100.00;102081.41;2612263;36;20006;-55
2022/05/05 06:10:53;;;;;;;;;;;;;;;11.54;100.00;102088.91;2613451;36;20061;-53
2022/05/05 06:20:53;;;;;;;;;;;;;;;11.99;100.00;102096.44;2612578;36;19981;-57
2022/05/05 06:23:21;;;;;;;;;;;;;;;12.17;100.00;102104.97;2613050;36;19950;-51
2022/05/05 06:25:52;;;;;;;;;;;;;;;12.07;100.00;102094.03;2613363;36;19992;-55
2022/05/05 06:28:20;;;;;;;;;;;;;;;12.17;100.00;102099.56;2613016;36;20134;-51
2022/05/05 06:40:56;;;;;;;;;;;;;;;12.28;100.00;102109.56;2614403;36;20399;-53
2022/05/05 06:46:03;;;;;;;;;;;;;;;12.48;100.00;102108.03;2613726;54;19980;-49
2022/05/05 07:29:15;;;;;;;;;;;;;;;14.17;100.00;102136.91;2613032;36;19950;31
2022/05/05 07:31:44;;;;;;;;;;;;;;;13.86;100.00;102138.63;2613524;36;19950;-52
2022/05/05 07:34:12;;;;;;;;;;;;;;;14.14;100.00;102139.03;2612799;36;20361;-55
2022/05/05 07:36:40;;;;;;;;;;;;;;;14.20;100.00;102138.53;2613239;36;20091;-59
2022/05/05 07:41:42;;;;;;;;;;;;;;;14.13;100.00;102137.31;2612396;54;19945;-55
2022/05/05 07:44:10;;;;;;;;;;;;;;;14.09;100.00;102142.13;2612490;36;19947;-59
2022/05/05 07:46:40;;;;;;;;;;;;;;;14.36;100.00;102147.06;2613366;36;19951;-53
2022/05/05 07:56:47;;;;;;;;;;;;;;;15.60;100.00;102141.84;2613506;36;19997;-54
2022/05/05 07:59:15;;;;;;;;;;;;;;;15.29;100.00;102149.16;2613691;31;20050;-53
2022/05/05 08:01:50;;;;;;;;;;;;;;;15.17;100.00;102151.09;2613938;54;20097;-51
2022/05/05 08:09:10;;;;;;;;;;;;;;;15.99;100.00;102152.84;2610494;54;19950;-54
2022/05/05 08:16:39;;;;;;;;;;;;;;;15.35;100.00;102164.88;2616577;36;19954;-57
2022/05/05 08:41:54;;;;;;;;;;;;;;;16.35;100.00;102174.91;2611752;54;20042;-55
2022/05/05 08:44:22;;;;;;;;;;;;;;;16.35;100.00;102169.47;2614665;36;20010;-53
2022/05/05 08:46:53;;;;;;;;;;;;;;;16.25;100.00;102168.59;2612060;36;20085;-53
2022/05/05 08:49:23;;;;;;;;;;;;;;;16.20;97.88;102179.03;2612524;36;19946;-55
2022/05/05 08:51:53;;;;;;;;;;;;;;;16.37;100.00;102177.47;2612809;36;19950;-51
2022/05/05 08:54:23;;;;;;;;;;;;;;;16.59;100.00;102181.75;2613309;36;20062;-55
2022/05/05 08:56:54;;;;;;;;;;;;;;;17.09;95.21;102178.91;2613924;36;20066;-51
2022/05/05 09:06:46;;;;;;;;;;;;;;;16.21;100.00;102194.31;2614106;39;20364;-51
2022/05/05 09:16:54;;;;;;;;;;;;;;;16.78;100.00;102189.94;2612620;36;19946;-51
2022/05/05 09:19:22;;;;;;;;;;;;;;;16.77;100.00;102196.38;2613154;36;19954;-54
2022/05/05 09:21:50;;;;;;;;;;;;;;;17.12;100.00;102189.47;2613973;36;20431;-52
2022/05/05 09:26:59;;;;;;;;;;;;;;;17.30;100.00;102191.44;2614241;36;19954;-51
2022/05/05 09:29:27;;;;;;;;;;;;;;;16.82;100.00;102185.91;2613693;36;19954;-55
2022/05/05 09:31:58;;;;;;;;;;;;;;;16.92;100.00;102199.53;2612530;36;20715;-49
2022/05/05 09:41:54;;;;;;;;;;;;;;;16.85;100.00;102195.63;2612733;54;19961;-51
2022/05/05 10:15:20;;;;;;;;;;;;;;;18.24;100.00;102205.91;2612854;54;20694;-52
2022/05/05 10:25:20;;;;;;;;;;;;;;;18.43;100.00;102211.22;2619322;36;20447;-55
2022/05/05 10:27:48;;;;;;;;;;;;;;;18.74;100.00;102219.00;2613611;36;20065;-52
2022/05/05 10:37:37;;;;;;;;;;;;;;;18.22;100.00;102211.50;2612736;54;19961;-54
2022/05/05 10:45:18;;;;;;;;;;;;;;;19.26;96.67;102224.56;2612864;39;20368;-56
2022/05/05 10:48:06;;;;;;;;;;;;;;;18.11;100.00;102219.88;2617110;36;20618;-52
2022/05/05 10:58:10;;;;;;;;;;;;;;;19.23;97.81;102230.34;2613082;36;19950;-55
2022/05/05 11:00:41;;;;;;;;;;;;;;;18.53;100.00;102227.50;2614830;36;20109;-53
2022/05/05 11:10:45;;;;;;;;;;;;;;;18.96;97.91;102233.22;2612331;36;19953;-49
2022/05/05 11:13:29;;;;;;;;;;;;;;;18.35;100.00;102238.41;2613100;36;19957;-52
2022/05/05 11:23:29;;;;;;;;;;;;;;;18.99;100.00;102228.31;2612059;31;20684;-55
2022/05/05 11:26:00;;;;;;;;;;;;;;;19.71;95.00;102221.75;2617296;36;19989;-58
2022/05/05 11:28:30;;;;;;;;;;;;;;;18.88;92.69;102234.00;2612568;36;19950;-50
2022/05/05 11:30:58;;;;;;;;;;;;;;;19.41;89.04;102237.63;2612682;36;20072;-56
2022/05/05 11:41:04;;;;;;;;;;;;;;;19.40;90.11;102235.91;2611918;36;19953;-53
2022/05/05 11:46:13;;;;;;;;;;;;;;;20.11;87.69;102217.50;2612056;36;19950;-55
2022/05/05 11:56:12;;;;;;;;;;;;;;;19.92;86.73;102227.69;2616737;36;19946;-53
2022/05/05 12:04:03;;;;;;;;;;;;;;;20.99;69.15;102216.97;2611935;47;20518;-57
2022/05/05 12:06:34;;;;;;;;;;;;;;;21.13;77.66;102211.81;2612390;36;20546;-51
2022/05/05 12:09:02;;;;;;;;;;;;;;;21.37;72.42;102207.31;2612662;36;20440;-56
2022/05/05 12:11:33;;;;;;;;;;;;;;;21.32;70.27;102216.91;2611500;36;20037;-54
2022/05/05 12:14:03;;;;;;;;;;;;;;;21.03;70.70;102213.88;2610783;47;20038;-54
2022/05/05 12:16:32;;;;;;;;;;;;;;;19.83;73.89;102212.28;2614179;36;20826;-50
2022/05/05 12:19:01;;;;;;;;;;;;;;;21.05;77.28;102209.94;2613184;39;20309;-55
2022/05/05 12:21:36;;;;;;;;;;;;;;;21.55;72.25;102199.75;2612710;36;19981;31
2022/05/05 12:24:06;;;;;;;;;;;;;;;21.79;67.83;102206.16;2617411;36;19953;-54
2022/05/05 12:31:55;;;;;;;;;;;;;;;22.32;63.28;102210.06;2614443;36;19953;-55
2022/05/05 12:34:25;;;;;;;;;;;;;;;22.10;65.33;102203.47;2617681;31;19947;-56
2022/05/05 12:37:07;;;;;;;;;;;;;;;22.19;64.30;102207.88;2613431;36;19947;-53
2022/05/05 12:39:35;;;;;;;;;;;;;;;22.54;61.43;102212.97;2613439;54;19954;-56
2022/05/05 13:00:09;;;;;;;;;;;;;;;21.37;68.15;102218.28;2612815;36;19946;-54
2022/05/05 13:10:17;;;;;;;;;;;;;;;21.09;68.33;102226.88;2613678;36;19957;-54
2022/05/05 13:15:18;;;;;;;;;;;;;;;21.52;71.50;102222.03;2612005;54;19961;-55
2022/05/05 13:20:26;;;;;;;;;;;;;;;19.52;83.79;102226.44;2613897;31;20459;-53
2022/05/05 13:22:54;;;;;;;;;;;;;;;20.29;84.78;102223.69;2616745;36;20030;-55
2022/05/05 13:25:26;;;;;;;;;;;;;;;20.13;81.86;102219.03;2613321;36;20089;-55
2022/05/05 13:27:54;;;;;;;;;;;;;;;20.23;84.76;102218.03;2613623;36;20085;-58
2022/05/05 13:30:22;;;;;;;;;;;;;;;20.52;80.66;102214.84;2612747;36;20172;-54
2022/05/05 13:37:46;;;;;;;;;;;;;;;21.74;65.23;102211.34;2613550;39;20356;-56
2022/05/05 13:40:14;;;;;;;;;;;;;;;22.09;64.33;102211.88;2614377;36;19973;-55
2022/05/05 13:47:35;;;;;;;;;;;;;;;22.08;62.71;102210.16;2612079;36;20370;-55
2022/05/05 13:55:07;;;;;;;;;;;;;;;22.09;62.50;102222.84;2612597;54;19946;-53
2022/05/05 14:12:47;;;;;;;;;;;;;;;22.13;61.86;102218.69;2616837;36;19946;-55
2022/05/05 14:15:15;;;;;;;;;;;;;;;20.72;72.63;102225.53;2611881;36;20041;-50
2022/05/05 14:17:43;;;;;;;;;;;;;;;21.42;71.86;102213.13;2611101;36;20026;-58
2022/05/05 14:20:12;;;;;;;;;;;;;;;21.76;67.32;102212.88;2611210;31;19953;-55
2022/05/05 14:25:18;;;;;;;;;;;;;;;21.86;72.05;102212.66;2609276;36;20045;-55
2022/05/05 14:27:46;;;;;;;;;;;;;;;21.96;72.14;102218.78;2613121;31;19969;-53
2022/05/05 14:30:14;;;;;;;;;;;;;;;21.87;70.07;102209.72;2612232;36;20054;-55
2022/05/05 14:32:42;;;;;;;;;;;;;;;21.82;72.37;102214.03;2610804;36;19984;-55
2022/05/05 14:42:29;;;;;;;;;;;;;;;23.02;62.70;102219.09;2611217;36;20050;-55
2022/05/05 14:44:57;;;;;;;;;;;;;;;23.37;62.36;102222.22;2610359;36;20076;-54
2022/05/05 14:47:25;;;;;;;;;;;;;;;23.05;61.95;102221.47;2610188;36;20459;-54
2022/05/05 14:49:54;;;;;;;;;;;;;;;23.31;60.38;102222.97;2610499;36;20070;-55
2022/05/05 14:52:23;;;;;;;;;;;;;;;22.64;65.19;102215.47;2607108;36;20807;-55
2022/05/05 14:54:52;;;;;;;;;;;;;;;22.87;63.14;102210.81;2610721;36;20009;-54
2022/05/05 14:57:20;;;;;;;;;;;;;;;22.63;63.41;102214.63;2602191;36;21233;-55
2022/05/05 14:59:51;;;;;;;;;;;;;;;22.74;62.12;102213.34;2609890;54;19950;-56
2022/05/05 15:02:19;;;;;;;;;;;;;;;23.28;58.53;102215.13;2609798;36;20054;-55
2022/05/05 15:04:48;;;;;;;;;;;;;;;22.52;62.19;102217.81;2611847;32;20077;-56
2022/05/05 15:23:11;;;;;;;;;;;;;;;21.59;66.28;102223.03;2611965;54;20085;-55
2022/05/05 15:25:43;;;;;;;;;;;;;;;21.34;69.84;102225.78;2609979;36;19942;-55
2022/05/05 15:30:37;;;;;;;;;;;;;;;22.81;61.50;102221.72;2611104;36;19946;-53
2022/05/05 15:33:08;;;;;;;;;;;;;;;22.82;62.31;102223.41;2612876;36;19973;-56
2022/05/05 15:35:36;;;;;;;;;;;;;;;22.13;64.97;102227.78;2611433;36;19958;-54
2022/05/05 15:38:04;;;;;;;;;;;;;;;22.73;61.91;102226.22;2609869;36;20006;-54
2022/05/05 15:40:32;;;;;;;;;;;;;;;21.88;63.73;102229.78;2610881;36;19950;-54
2022/05/05 15:43:01;;;;;;;;;;;;;;;21.98;66.11;102241.41;2611449;36;20450;-54
2022/05/05 15:45:29;;;;;;;;;;;;;;;22.26;65.16;102224.47;2611131;36;19946;-54
2022/05/05 15:47:57;;;;;;;;;;;;;;;22.26;64.74;102227.22;2610720;36;20516;-53
2022/05/05 15:50:28;;;;;;;;;;;;;;;21.84;63.16;102225.69;2610729;36;20392;-54
2022/05/05 15:52:56;;;;;;;;;;;;;;;22.31;64.63;102223.91;2610895;36;20082;-55
2022/05/05 15:55:24;;;;;;;;;;;;;;;23.12;60.39;102229.03;2611081;36;20036;-57
2022/05/05 15:57:52;;;;;;;;;;;;;;;22.79;59.75;102229.25;2628892;36;19994;-54
2022/05/05 16:00:24;;;;;;;;;;;;;;;22.49;61.82;102231.88;2603588;36;19950;-52
2022/05/05 16:02:52;;;;;;;;;;;;;;;22.85;59.44;102228.50;2611781;31;20308;-53
2022/05/05 16:05:22;;;;;;;;;;;;;;;22.65;60.08;102239.16;2601426;36;20386;-55
2022/05/05 16:07:55;;;;;;;;;;;;;;;22.65;59.06;102231.75;2611672;36;20327;-51
2022/05/05 16:10:25;;;;;;;;;;;;;;;22.75;58.93;102229.63;2610066;36;20049;-53
2022/05/05 16:12:58;;;;;;;;;;;;;;;22.64;58.85;102235.53;2611888;36;20030;-57
2022/05/05 16:15:26;;;;;;;;;;;;;;;22.88;60.53;102222.69;2609235;36;20379;-52
2022/05/05 16:17:55;;;;;;;;;;;;;;;22.98;60.95;102228.78;2610929;36;20114;-55
2022/05/05 16:20:23;;;;;;;;;;;;;;;22.47;61.84;102232.06;2611840;31;20054;-53
2022/05/05 16:22:54;;;;;;;;;;;;;;;22.43;62.01;102235.38;2611046;36;19962;-55
2022/05/05 16:30:45;;;;;;;;;;;;;;;21.60;63.73;102235.72;2611125;36;20573;-53
2022/05/05 16:33:13;;;;;;;;;;;;;;;21.81;63.21;102237.84;2610782;36;20037;-52
2022/05/05 16:35:41;;;;;;;;;;;;;;;21.99;63.47;102237.59;2611486;36;20069;-54
2022/05/05 16:38:12;;;;;;;;;;;;;;;21.26;66.24;102245.00;2611593;36;19946;-57
2022/05/05 16:40:40;;;;;;;;;;;;;;;21.06;73.08;102243.66;2611597;36;20086;-55
2022/05/05 16:43:09;;;;;;;;;;;;;;;21.22;70.26;102248.25;2611444;36;19961;-53
2022/05/05 16:45:40;;;;;;;;;;;;;;;21.14;69.99;102251.84;2612708;36;20478;-54
2022/05/05 16:48:08;;;;;;;;;;;;;;;20.66;73.41;102248.94;2612151;36;19950;-55
2022/05/05 16:50:36;;;;;;;;;;;;;;;20.75;74.82;102253.38;2609899;36;20059;-58
2022/05/05 16:53:04;;;;;;;;;;;;;;;20.30;78.21;102246.41;2611942;31;20511;-55
2022/05/05 16:55:35;;;;;;;;;;;;;;;20.34;83.05;102249.69;2611676;36;19957;-54
2022/05/05 16:58:03;;;;;;;;;;;;;;;20.23;84.82;102248.97;2611326;36;20497;-52
2022/05/05 17:00:31;;;;;;;;;;;;;;;20.16;87.10;102249.81;2611567;36;19971;-50
2022/05/05 17:02:59;;;;;;;;;;;;;;;20.12;86.85;102247.38;2611793;36;20615;-57
2022/05/05 17:05:27;;;;;;;;;;;;;;;19.64;93.62;102248.00;2603498;36;19998;-58
2022/05/05 17:07:56;;;;;;;;;;;;;;;19.63;96.52;102252.63;2611496;36;19985;-51
2022/05/05 17:10:26;;;;;;;;;;;;;;;20.01;92.35;102249.56;2605527;36;19951;-51
2022/05/05 17:12:57;;;;;;;;;;;;;;;19.98;85.74;102237.13;2612114;36;20045;-54
2022/05/05 17:15:25;;;;;;;;;;;;;;;19.74;90.94;102248.72;2611851;36;19957;-52
2022/05/05 17:17:53;;;;;;;;;;;;;;;19.56;93.81;102246.94;2612036;36;20030;-57
2022/05/05 17:20:22;;;;;;;;;;;;;;;19.32;99.53;102255.00;2612020;31;20468;-54
2022/05/05 17:22:51;;;;;;;;;;;;;;;18.88;100.00;102259.41;2612132;36;19950;-54
2022/05/05 17:25:19;;;;;;;;;;;;;;;18.77;100.00;102253.28;2612372;36;19954;-55
2022/05/05 17:27:47;;;;;;;;;;;;;;;18.24;100.00;102246.78;2611142;36;19983;-53
2022/05/05 17:30:18;;;;;;;;;;;;;;;18.52;100.00;102255.78;2609707;36;20511;-55
2022/05/05 17:32:46;;;;;;;;;;;;;;;18.67;100.00;102262.41;2611023;36;20038;-54
2022/05/05 17:35:14;;;;;;;;;;;;;;;18.79;100.00;102262.19;2611163;36;19951;-52
2022/05/05 17:37:42;;;;;;;;;;;;;;;18.72;100.00;102264.69;2611660;36;20065;-52
2022/05/05 17:40:10;;;;;;;;;;;;;;;18.62;100.00;102272.06;2608388;36;19966;-52
2022/05/05 17:42:38;;;;;;;;;;;;;;;18.10;100.00;102276.25;2612394;36;20407;-54
2022/05/05 17:50:34;;;;;;;;;;;;;;;18.07;100.00;102270.28;2611989;36;20801;-56
2022/05/05 17:53:02;;;;;;;;;;;;;;;17.93;100.00;102267.03;2612239;36;19957;-54
2022/05/05 17:55:32;;;;;;;;;;;;;;;17.93;100.00;102277.06;2611423;36;19969;-54
2022/05/05 17:58:00;;;;;;;;;;;;;;;17.76;100.00;102273.25;2611829;36;19947;-55
2022/05/05 18:00:29;;;;;;;;;;;;;;;17.82;100.00;102281.66;2611704;36;20077;-56
2022/05/05 18:03:00;;;;;;;;;;;;;;;17.90;100.00;102282.81;2612208;36;20042;-53
2022/05/05 18:05:31;;;;;;;;;;;;;;;17.72;100.00;102283.56;2611666;36;19970;-54
2022/05/05 18:07:59;;;;;;;;;;;;;;;17.68;100.00;102283.00;2611145;36;19950;-52
2022/05/05 18:10:27;;;;;;;;;;;;;;;17.64;100.00;102286.19;2604958;36;19977;-56
2022/05/05 18:12:56;;;;;;;;;;;;;;;17.25;100.00;102291.69;2611173;36;19950;-51
2022/05/05 18:15:25;;;;;;;;;;;;;;;17.27;100.00;102289.66;2604950;36;19951;-52
2022/05/05 18:17:53;;;;;;;;;;;;;;;17.26;100.00;102283.38;2611247;36;20340;-50
2022/05/05 18:20:24;;;;;;;;;;;;;;;17.35;100.00;102292.53;2611379;36;19947;-59
2022/05/05 18:22:52;;;;;;;;;;;;;;;17.32;100.00;102304.56;2612177;36;20039;-52
2022/05/05 18:25:20;;;;;;;;;;;;;;;17.42;100.00;102299.13;2611688;36;19962;-56
2022/05/05 18:27:48;;;;;;;;;;;;;;;17.03;100.00;102298.28;2611658;36;19947;-54
2022/05/05 18:30:16;;;;;;;;;;;;;;;16.93;100.00;102306.44;2611557;36;20266;-52
2022/05/05 18:32:45;;;;;;;;;;;;;;;16.82;100.00;102301.97;2609992;36;19955;-54
2022/05/05 18:35:15;;;;;;;;;;;;;;;16.56;100.00;102307.09;2609074;36;20410;-51
2022/05/05 18:37:46;;;;;;;;;;;;;;;16.57;100.00;102308.81;2609801;36;19946;-48
2022/05/05 18:40:14;;;;;;;;;;;;;;;16.39;100.00;102311.34;2611183;36;20069;-49
2022/05/05 18:42:42;;;;;;;;;;;;;;;16.44;100.00;102317.22;2611490;36;20470;-51
2022/05/05 18:45:10;;;;;;;;;;;;;;;16.43;100.00;102305.50;2611452;31;19981;-54
2022/05/05 18:47:38;;;;;;;;;;;;;;;16.35;100.00;102318.06;2610819;36;19988;-53
2022/05/05 18:50:07;;;;;;;;;;;;;;;16.35;100.00;102315.34;2611136;36;20009;-56
2022/05/05 18:52:36;;;;;;;;;;;;;;;16.30;100.00;102315.75;2611150;36;19947;-57
2022/05/05 18:55:07;;;;;;;;;;;;;;;16.10;100.00;102321.09;2611482;36;20055;-55
2022/05/05 18:57:36;;;;;;;;;;;;;;;15.96;100.00;102321.50;2611939;36;20037;-52
2022/05/05 19:00:05;;;;;;;;;;;;;;;15.82;100.00;102319.13;2610658;36;20074;-53
2022/05/05 19:02:33;;;;;;;;;;;;;;;15.85;100.00;102324.28;2612239;36;20249;-53
2022/05/05 19:05:01;;;;;;;;;;;;;;;15.80;100.00;102319.25;2611284;36;20094;-59
2022/05/05 19:07:29;;;;;;;;;;;;;;;15.73;100.00;102335.19;2612468;36;20608;-53
2022/05/05 19:09:57;;;;;;;;;;;;;;;15.72;100.00;102336.19;2611330;36;20041;-54
2022/05/05 19:12:28;;;;;;;;;;;;;;;15.51;100.00;102338.03;2612174;31;20045;-51
2022/05/05 19:14:57;;;;;;;;;;;;;;;15.50;100.00;102345.34;2606021;36;19970;-55
2022/05/05 19:17:25;;;;;;;;;;;;;;;15.42;100.00;102340.53;2613189;31;20430;-52
2022/05/05 19:19:54;;;;;;;;;;;;;;;15.33;100.00;102346.78;2607320;36;20463;-53
2022/05/05 19:22:26;;;;;;;;;;;;;;;15.26;100.00;102345.56;2611660;36;19947;-52
2022/05/05 19:24:54;;;;;;;;;;;;;;;15.14;100.00;102352.03;2611689;36;19946;-50
2022/05/05 19:27:22;;;;;;;;;;;;;;;15.02;100.00;102356.66;2609783;36;20425;-55
2022/05/05 19:29:53;;;;;;;;;;;;;;;14.97;100.00;102354.34;2610789;36;20090;-55
2022/05/05 19:32:21;;;;;;;;;;;;;;;14.96;100.00;102354.44;2611685;36;20264;-50
2022/05/05 19:34:49;;;;;;;;;;;;;;;14.81;100.00;102360.16;2611756;36;19951;-51
2022/05/05 19:37:19;;;;;;;;;;;;;;;14.73;100.00;102369.91;2610936;36;20051;-54
2022/05/05 19:39:47;;;;;;;;;;;;;;;14.60;100.00;102365.44;2612780;36;19950;-54
2022/05/05 19:42:15;;;;;;;;;;;;;;;14.62;100.00;102368.94;2611394;36;19954;-57
2022/05/05 19:44:43;;;;;;;;;;;;;;;14.50;100.00;102380.72;2612451;31;20074;-51
2022/05/05 19:47:14;;;;;;;;;;;;;;;14.40;100.00;102379.75;2612939;36;20546;-55
2022/05/05 19:49:42;;;;;;;;;;;;;;;14.15;100.00;102376.34;2611928;36;20037;-51
2022/05/05 19:52:10;;;;;;;;;;;;;;;14.01;100.00;102386.38;2611554;36;20368;-48
2022/05/05 19:54:38;;;;;;;;;;;;;;;13.90;100.00;102383.69;2612445;36;19950;-53
2022/05/05 20:02:31;;;;;;;;;;;;;;;13.72;100.00;102390.53;2611617;36;19954;-55
2022/05/05 20:07:39;;;;;;;;;;;;;;;13.56;100.00;102401.66;2611556;36;19954;-55
2022/05/05 20:10:08;;;;;;;;;;;;;;;13.40;100.00;102402.84;2611209;36;19947;-52
2022/05/05 20:12:36;;;;;;;;;;;;;;;13.31;100.00;102406.22;2610826;36;19974;-50
2022/05/05 20:15:04;;;;;;;;;;;;;;;13.26;100.00;102406.53;2611458;36;19947;-50
2022/05/05 20:17:35;;;;;;;;;;;;;;;13.21;100.00;102414.16;2609846;36;19958;-49
2022/05/05 20:20:03;;;;;;;;;;;;;;;13.22;100.00;102421.31;2605861;36;20005;-56
2022/05/05 20:22:31;;;;;;;;;;;;;;;13.16;100.00;102416.31;2611275;36;20367;-52
2022/05/05 20:24:59;;;;;;;;;;;;;;;13.01;100.00;102417.50;2611014;36;20432;-50
2022/05/05 20:27:27;;;;;;;;;;;;;;;12.96;100.00;102424.09;2612027;36;20010;-52
2022/05/05 20:29:59;;;;;;;;;;;;;;;12.88;100.00;102420.22;2610066;36;19980;-51
2022/05/05 20:32:28;;;;;;;;;;;;;;;12.90;100.00;102427.25;2611896;36;20427;-51
2022/05/05 20:34:59;;;;;;;;;;;;;;;12.81;100.00;102430.63;2611999;36;20444;-57
2022/05/05 20:37:27;;;;;;;;;;;;;;;12.77;100.00;102426.44;2611817;36;19951;-57
2022/05/05 20:39:55;;;;;;;;;;;;;;;12.79;100.00;102429.88;2611739;36;20589;-52
2022/05/05 20:42:23;;;;;;;;;;;;;;;12.64;100.00;102433.69;2611988;36;19958;-50
2022/05/05 20:44:51;;;;;;;;;;;;;;;12.44;100.00;102431.47;2610834;36;20511;-53
2022/05/05 20:47:19;;;;;;;;;;;;;;;12.42;100.00;102444.19;2612077;36;19985;-53
2022/05/05 20:49:47;;;;;;;;;;;;;;;12.40;100.00;102453.41;2612260;36;19950;-50
2022/05/05 20:52:17;;;;;;;;;;;;;;;12.40;100.00;102450.69;2612060;36;19996;-51
2022/05/05 20:54:45;;;;;;;;;;;;;;;12.37;100.00;102451.75;2611816;36;20042;-49
2022/05/05 20:57:14;;;;;;;;;;;;;;;12.32;100.00;102453.06;2612781;31;20038;-59
2022/05/05 20:59:42;;;;;;;;;;;;;;;12.38;100.00;102453.50;2610696;36;20330;-51
2022/05/05 21:02:11;;;;;;;;;;;;;;;12.37;100.00;102462.56;2610704;36;19946;-49
2022/05/05 21:04:39;;;;;;;;;;;;;;;12.24;100.00;102465.25;2611577;36;19973;-55
2022/05/05 21:07:08;;;;;;;;;;;;;;;12.15;100.00;102463.22;2612532;36;20643;-53
2022/05/05 21:09:38;;;;;;;;;;;;;;;12.12;100.00;102458.03;2612118;36;20009;-49
2022/05/05 21:12:07;;;;;;;;;;;;;;;12.15;100.00;102456.97;2613780;36;20335;-52
2022/05/05 21:14:35;;;;;;;;;;;;;;;12.08;100.00;102459.22;2612751;36;20030;-56
2022/05/05 21:17:03;;;;;;;;;;;;;;;11.98;100.00;102468.91;2613558;36;19950;-51
2022/05/05 21:19:31;;;;;;;;;;;;;;;11.90;100.00;102462.19;2613824;31;19989;-50
2022/05/05 21:27:25;;;;;;;;;;;;;;;11.86;100.00;102463.34;2613461;31;19969;-53
2022/05/05 21:29:53;;;;;;;;;;;;;;;11.82;100.00;102466.38;2612831;36;20037;-53
2022/05/05 21:32:21;;;;;;;;;;;;;;;11.83;100.00;102468.94;2613008;36;20005;-49